sensor_id;sensor_type;location;lat;lon;timestamp;P1;durP1;ratioP1;P2;durP2;ratioP2
21274;SDS011;36472;52.170;20.884;2022-10-16T00:00:08;11.77;;;9.77;;
21274;SDS011;36472;52.170;20.884;2022-10-16T00:02:59;14.18;;;9.20;;
21274;SDS011;36472;52.170;20.884;2022-10-16T00:05:27;11.30;;;9.18;;
21274;SDS011;36472;52.170;20.884;2022-10-16T00:07:56;10.93;;;8.73;;
21274;SDS011;36472;52.170;20.884;2022-10-16T00:10:26;11.27;;;8.75;;
21274;SDS011;36472;52.170;20.884;2022-10-16T00:12:55;10.88;;;8.45;;
21274;SDS011;36472;52.170;20.884;2022-10-16T00:15:24;12.98;;;9.00;;
21274;SDS011;36472;52.170;20.884;2022-10-16T00:17:52;13.88;;;9.38;;
21274;SDS011;36472;52.170;20.884;2022-10-16T00:20:21;12.52;;;9.00;;
21274;SDS011;36472;52.170;20.884;2022-10-16T00:23:08;14.63;;;9.30;;
21274;SDS011;36472;52.170;20.884;2022-10-16T00:25:38;10.75;;;8.40;;
21274;SDS011;36472;52.170;20.884;2022-10-16T00:28:07;13.85;;;9.70;;
21274;SDS011;36472;52.170;20.884;2022-10-16T00:30:37;12.55;;;9.52;;
21274;SDS011;36472;52.170;20.884;2022-10-16T00:33:06;11.48;;;9.07;;
21274;SDS011;36472;52.170;20.884;2022-10-16T00:35:35;13.60;;;9.82;;
21274;SDS011;36472;52.170;20.884;2022-10-16T00:38:03;13.80;;;9.77;;
21274;SDS011;36472;52.170;20.884;2022-10-16T00:40:32;15.15;;;9.55;;
21274;SDS011;36472;52.170;20.884;2022-10-16T00:43:02;14.55;;;9.82;;
21274;SDS011;36472;52.170;20.884;2022-10-16T00:45:37;13.95;;;11.35;;
21274;SDS011;36472;52.170;20.884;2022-10-16T00:48:06;16.65;;;10.77;;
21274;SDS011;36472;52.170;20.884;2022-10-16T00:50:41;15.00;;;11.02;;
21274;SDS011;36472;52.170;20.884;2022-10-16T00:53:10;14.48;;;10.70;;
21274;SDS011;36472;52.170;20.884;2022-10-16T00:55:39;15.60;;;10.45;;
21274;SDS011;36472;52.170;20.884;2022-10-16T00:58:10;11.63;;;9.40;;
21274;SDS011;36472;52.170;20.884;2022-10-16T01:00:39;16.88;;;10.32;;
21274;SDS011;36472;52.170;20.884;2022-10-16T01:03:21;12.88;;;10.45;;
21274;SDS011;36472;52.170;20.884;2022-10-16T01:05:57;15.75;;;10.27;;
21274;SDS011;36472;52.170;20.884;2022-10-16T01:08:45;16.17;;;11.02;;
21274;SDS011;36472;52.170;20.884;2022-10-16T01:11:30;13.00;;;10.20;;
21274;SDS011;36472;52.170;20.884;2022-10-16T01:14:06;15.35;;;10.85;;
21274;SDS011;36472;52.170;20.884;2022-10-16T01:16:47;13.25;;;10.32;;
21274;SDS011;36472;52.170;20.884;2022-10-16T01:19:26;12.45;;;10.23;;
21274;SDS011;36472;52.170;20.884;2022-10-16T01:22:15;14.43;;;10.75;;
21274;SDS011;36472;52.170;20.884;2022-10-16T01:24:48;12.50;;;10.07;;
21274;SDS011;36472;52.170;20.884;2022-10-16T01:27:22;13.35;;;11.25;;
21274;SDS011;36472;52.170;20.884;2022-10-16T01:29:58;13.98;;;10.52;;
21274;SDS011;36472;52.170;20.884;2022-10-16T01:32:37;14.80;;;11.35;;
21274;SDS011;36472;52.170;20.884;2022-10-16T01:35:11;11.98;;;9.32;;
21274;SDS011;36472;52.170;20.884;2022-10-16T01:37:48;14.77;;;10.70;;
21274;SDS011;36472;52.170;20.884;2022-10-16T01:40:24;15.00;;;10.82;;
21274;SDS011;36472;52.170;20.884;2022-10-16T01:42:58;14.88;;;11.18;;
21274;SDS011;36472;52.170;20.884;2022-10-16T01:45:32;16.42;;;11.73;;
21274;SDS011;36472;52.170;20.884;2022-10-16T01:48:04;15.48;;;11.25;;
21274;SDS011;36472;52.170;20.884;2022-10-16T01:50:37;13.38;;;10.73;;
21274;SDS011;36472;52.170;20.884;2022-10-16T01:53:10;16.13;;;11.73;;
21274;SDS011;36472;52.170;20.884;2022-10-16T01:55:44;16.48;;;11.23;;
21274;SDS011;36472;52.170;20.884;2022-10-16T01:58:18;14.70;;;11.23;;
21274;SDS011;36472;52.170;20.884;2022-10-16T02:00:47;16.50;;;12.05;;
21274;SDS011;36472;52.170;20.884;2022-10-16T02:03:18;16.30;;;11.93;;
21274;SDS011;36472;52.170;20.884;2022-10-16T02:05:49;16.05;;;11.45;;
21274;SDS011;36472;52.170;20.884;2022-10-16T02:08:22;17.65;;;12.63;;
21274;SDS011;36472;52.170;20.884;2022-10-16T02:10:55;16.60;;;11.98;;
21274;SDS011;36472;52.170;20.884;2022-10-16T02:13:27;15.43;;;12.57;;
21274;SDS011;36472;52.170;20.884;2022-10-16T02:16:01;15.57;;;12.40;;
21274;SDS011;36472;52.170;20.884;2022-10-16T02:18:30;16.90;;;13.20;;
21274;SDS011;36472;52.170;20.884;2022-10-16T02:20:59;15.65;;;13.02;;
21274;SDS011;36472;52.170;20.884;2022-10-16T02:23:42;18.42;;;13.10;;
21274;SDS011;36472;52.170;20.884;2022-10-16T02:26:20;17.55;;;13.48;;
21274;SDS011;36472;52.170;20.884;2022-10-16T02:28:59;19.98;;;13.32;;
21274;SDS011;36472;52.170;20.884;2022-10-16T02:31:33;19.73;;;13.98;;
21274;SDS011;36472;52.170;20.884;2022-10-16T02:34:08;17.83;;;13.20;;
21274;SDS011;36472;52.170;20.884;2022-10-16T02:36:41;19.30;;;13.63;;
21274;SDS011;36472;52.170;20.884;2022-10-16T02:39:11;19.77;;;14.25;;
21274;SDS011;36472;52.170;20.884;2022-10-16T02:41:42;19.17;;;13.38;;
21274;SDS011;36472;52.170;20.884;2022-10-16T02:44:12;18.52;;;13.63;;
21274;SDS011;36472;52.170;20.884;2022-10-16T02:46:41;17.77;;;13.57;;
21274;SDS011;36472;52.170;20.884;2022-10-16T02:49:09;18.48;;;13.77;;
21274;SDS011;36472;52.170;20.884;2022-10-16T02:51:38;20.27;;;13.70;;
21274;SDS011;36472;52.170;20.884;2022-10-16T02:54:07;19.95;;;14.07;;
21274;SDS011;36472;52.170;20.884;2022-10-16T02:56:35;19.45;;;14.57;;
21274;SDS011;36472;52.170;20.884;2022-10-16T02:59:04;20.27;;;13.57;;
21274;SDS011;36472;52.170;20.884;2022-10-16T03:01:34;21.40;;;13.73;;
21274;SDS011;36472;52.170;20.884;2022-10-16T03:04:03;18.08;;;13.73;;
21274;SDS011;36472;52.170;20.884;2022-10-16T03:06:32;19.95;;;13.48;;
21274;SDS011;36472;52.170;20.884;2022-10-16T03:09:00;20.20;;;14.27;;
21274;SDS011;36472;52.170;20.884;2022-10-16T03:11:29;19.67;;;13.70;;
21274;SDS011;36472;52.170;20.884;2022-10-16T03:13:58;17.52;;;14.20;;
21274;SDS011;36472;52.170;20.884;2022-10-16T03:16:27;19.67;;;13.90;;
21274;SDS011;36472;52.170;20.884;2022-10-16T03:18:57;17.77;;;13.85;;
21274;SDS011;36472;52.170;20.884;2022-10-16T03:21:25;18.55;;;13.27;;
21274;SDS011;36472;52.170;20.884;2022-10-16T03:23:54;20.55;;;14.63;;
21274;SDS011;36472;52.170;20.884;2022-10-16T03:26:23;19.92;;;13.25;;
21274;SDS011;36472;52.170;20.884;2022-10-16T03:28:51;20.10;;;14.05;;
21274;SDS011;36472;52.170;20.884;2022-10-16T03:31:20;18.80;;;14.30;;
21274;SDS011;36472;52.170;20.884;2022-10-16T03:33:49;19.20;;;13.85;;
21274;SDS011;36472;52.170;20.884;2022-10-16T03:36:19;18.30;;;13.77;;
21274;SDS011;36472;52.170;20.884;2022-10-16T03:38:48;17.20;;;13.55;;
21274;SDS011;36472;52.170;20.884;2022-10-16T03:41:17;17.80;;;13.00;;
21274;SDS011;36472;52.170;20.884;2022-10-16T03:43:45;19.33;;;13.90;;
21274;SDS011;36472;52.170;20.884;2022-10-16T03:46:14;18.38;;;13.55;;
21274;SDS011;36472;52.170;20.884;2022-10-16T03:48:42;17.60;;;14.30;;
21274;SDS011;36472;52.170;20.884;2022-10-16T03:51:11;16.95;;;13.02;;
21274;SDS011;36472;52.170;20.884;2022-10-16T03:53:41;18.00;;;14.13;;
21274;SDS011;36472;52.170;20.884;2022-10-16T03:56:10;19.05;;;14.48;;
21274;SDS011;36472;52.170;20.884;2022-10-16T03:58:39;17.55;;;13.75;;
21274;SDS011;36472;52.170;20.884;2022-10-16T04:01:07;18.08;;;14.07;;
21274;SDS011;36472;52.170;20.884;2022-10-16T04:03:36;16.38;;;13.20;;
21274;SDS011;36472;52.170;20.884;2022-10-16T04:06:05;18.45;;;14.13;;
21274;SDS011;36472;52.170;20.884;2022-10-16T04:08:33;17.65;;;13.25;;
21274;SDS011;36472;52.170;20.884;2022-10-16T04:11:05;17.88;;;13.55;;
21274;SDS011;36472;52.170;20.884;2022-10-16T04:13:33;21.80;;;14.52;;
21274;SDS011;36472;52.170;20.884;2022-10-16T04:16:02;18.58;;;12.88;;
21274;SDS011;36472;52.170;20.884;2022-10-16T04:18:31;19.85;;;14.50;;
21274;SDS011;36472;52.170;20.884;2022-10-16T04:21:02;17.63;;;13.93;;
21274;SDS011;36472;52.170;20.884;2022-10-16T04:23:31;19.55;;;14.18;;
21274;SDS011;36472;52.170;20.884;2022-10-16T04:26:01;17.67;;;13.73;;
21274;SDS011;36472;52.170;20.884;2022-10-16T04:28:31;19.40;;;13.32;;
21274;SDS011;36472;52.170;20.884;2022-10-16T04:30:59;18.95;;;13.52;;
21274;SDS011;36472;52.170;20.884;2022-10-16T04:33:31;17.63;;;13.77;;
21274;SDS011;36472;52.170;20.884;2022-10-16T04:36:01;17.65;;;13.55;;
21274;SDS011;36472;52.170;20.884;2022-10-16T04:38:31;19.35;;;13.98;;
21274;SDS011;36472;52.170;20.884;2022-10-16T04:41:00;18.63;;;13.80;;
21274;SDS011;36472;52.170;20.884;2022-10-16T04:43:30;20.40;;;14.10;;
21274;SDS011;36472;52.170;20.884;2022-10-16T04:45:59;18.63;;;14.02;;
21274;SDS011;36472;52.170;20.884;2022-10-16T04:48:28;18.50;;;13.43;;
21274;SDS011;36472;52.170;20.884;2022-10-16T04:50:57;20.65;;;14.45;;
21274;SDS011;36472;52.170;20.884;2022-10-16T04:53:25;18.52;;;14.80;;
21274;SDS011;36472;52.170;20.884;2022-10-16T04:55:54;19.23;;;14.20;;
21274;SDS011;36472;52.170;20.884;2022-10-16T04:58:23;24.55;;;15.32;;
21274;SDS011;36472;52.170;20.884;2022-10-16T05:00:54;22.75;;;15.48;;
21274;SDS011;36472;52.170;20.884;2022-10-16T05:03:22;20.08;;;15.27;;
21274;SDS011;36472;52.170;20.884;2022-10-16T05:05:51;21.80;;;15.32;;
21274;SDS011;36472;52.170;20.884;2022-10-16T05:08:20;19.40;;;15.15;;
21274;SDS011;36472;52.170;20.884;2022-10-16T05:10:48;21.05;;;15.55;;
21274;SDS011;36472;52.170;20.884;2022-10-16T05:13:17;20.40;;;14.10;;
21274;SDS011;36472;52.170;20.884;2022-10-16T05:15:46;18.45;;;14.18;;
21274;SDS011;36472;52.170;20.884;2022-10-16T05:18:17;22.75;;;16.15;;
21274;SDS011;36472;52.170;20.884;2022-10-16T05:20:46;23.67;;;16.13;;
21274;SDS011;36472;52.170;20.884;2022-10-16T05:23:14;21.85;;;14.85;;
21274;SDS011;36472;52.170;20.884;2022-10-16T05:25:43;19.30;;;14.93;;
21274;SDS011;36472;52.170;20.884;2022-10-16T05:28:20;20.30;;;14.95;;
21274;SDS011;36472;52.170;20.884;2022-10-16T05:30:49;21.55;;;16.17;;
21274;SDS011;36472;52.170;20.884;2022-10-16T05:33:20;19.48;;;15.45;;
21274;SDS011;36472;52.170;20.884;2022-10-16T05:35:52;21.55;;;15.57;;
21274;SDS011;36472;52.170;20.884;2022-10-16T05:38:21;25.10;;;16.73;;
21274;SDS011;36472;52.170;20.884;2022-10-16T05:40:52;22.15;;;15.68;;
21274;SDS011;36472;52.170;20.884;2022-10-16T05:43:21;22.58;;;16.20;;
21274;SDS011;36472;52.170;20.884;2022-10-16T05:45:54;21.02;;;15.00;;
21274;SDS011;36472;52.170;20.884;2022-10-16T05:48:25;22.67;;;15.07;;
21274;SDS011;36472;52.170;20.884;2022-10-16T05:50:57;20.02;;;15.10;;
21274;SDS011;36472;52.170;20.884;2022-10-16T05:53:27;22.92;;;16.10;;
21274;SDS011;36472;52.170;20.884;2022-10-16T05:55:57;20.75;;;15.65;;
21274;SDS011;36472;52.170;20.884;2022-10-16T05:58:28;20.92;;;15.75;;
21274;SDS011;36472;52.170;20.884;2022-10-16T06:01:00;25.02;;;15.90;;
21274;SDS011;36472;52.170;20.884;2022-10-16T06:03:33;19.88;;;14.43;;
21274;SDS011;36472;52.170;20.884;2022-10-16T06:06:07;21.38;;;15.57;;
21274;SDS011;36472;52.170;20.884;2022-10-16T06:08:38;22.05;;;15.20;;
21274;SDS011;36472;52.170;20.884;2022-10-16T06:11:08;22.92;;;15.90;;
21274;SDS011;36472;52.170;20.884;2022-10-16T06:13:41;21.92;;;14.88;;
21274;SDS011;36472;52.170;20.884;2022-10-16T06:16:10;20.30;;;15.18;;
21274;SDS011;36472;52.170;20.884;2022-10-16T06:18:41;19.70;;;14.75;;
21274;SDS011;36472;52.170;20.884;2022-10-16T06:21:11;19.23;;;14.57;;
21274;SDS011;36472;52.170;20.884;2022-10-16T06:23:44;22.30;;;15.68;;
21274;SDS011;36472;52.170;20.884;2022-10-16T06:26:14;22.58;;;14.93;;
21274;SDS011;36472;52.170;20.884;2022-10-16T06:28:45;18.73;;;14.60;;
21274;SDS011;36472;52.170;20.884;2022-10-16T06:31:15;18.50;;;15.05;;
21274;SDS011;36472;52.170;20.884;2022-10-16T06:33:49;19.73;;;15.02;;
21274;SDS011;36472;52.170;20.884;2022-10-16T06:36:19;18.73;;;14.23;;
21274;SDS011;36472;52.170;20.884;2022-10-16T06:38:49;19.83;;;14.68;;
21274;SDS011;36472;52.170;20.884;2022-10-16T06:41:18;18.90;;;13.93;;
21274;SDS011;36472;52.170;20.884;2022-10-16T06:43:50;18.92;;;14.25;;
21274;SDS011;36472;52.170;20.884;2022-10-16T06:46:20;19.83;;;13.90;;
21274;SDS011;36472;52.170;20.884;2022-10-16T06:48:52;18.98;;;14.63;;
21274;SDS011;36472;52.170;20.884;2022-10-16T06:51:22;19.98;;;14.40;;
21274;SDS011;36472;52.170;20.884;2022-10-16T06:53:53;19.20;;;14.20;;
21274;SDS011;36472;52.170;20.884;2022-10-16T06:56:30;20.67;;;15.13;;
21274;SDS011;36472;52.170;20.884;2022-10-16T06:59:00;17.65;;;13.90;;
21274;SDS011;36472;52.170;20.884;2022-10-16T07:01:30;17.45;;;13.07;;
21274;SDS011;36472;52.170;20.884;2022-10-16T07:04:01;17.38;;;14.23;;
21274;SDS011;36472;52.170;20.884;2022-10-16T07:06:31;18.77;;;14.52;;
21274;SDS011;36472;52.170;20.884;2022-10-16T07:09:03;20.33;;;15.48;;
21274;SDS011;36472;52.170;20.884;2022-10-16T07:11:33;21.05;;;14.32;;
21274;SDS011;36472;52.170;20.884;2022-10-16T07:14:04;19.73;;;14.75;;
21274;SDS011;36472;52.170;20.884;2022-10-16T07:16:37;18.35;;;14.35;;
21274;SDS011;36472;52.170;20.884;2022-10-16T07:19:07;18.73;;;15.07;;
21274;SDS011;36472;52.170;20.884;2022-10-16T07:21:38;18.65;;;14.45;;
21274;SDS011;36472;52.170;20.884;2022-10-16T07:24:10;20.30;;;14.25;;
21274;SDS011;36472;52.170;20.884;2022-10-16T07:26:42;17.90;;;13.90;;
21274;SDS011;36472;52.170;20.884;2022-10-16T07:29:13;18.65;;;14.48;;
21274;SDS011;36472;52.170;20.884;2022-10-16T07:31:44;21.23;;;15.07;;
21274;SDS011;36472;52.170;20.884;2022-10-16T07:34:15;18.02;;;14.65;;
21274;SDS011;36472;52.170;20.884;2022-10-16T07:36:48;18.48;;;14.60;;
21274;SDS011;36472;52.170;20.884;2022-10-16T07:39:18;20.83;;;13.43;;
21274;SDS011;36472;52.170;20.884;2022-10-16T07:41:46;18.75;;;13.48;;
21274;SDS011;36472;52.170;20.884;2022-10-16T07:44:15;16.63;;;14.25;;
21274;SDS011;36472;52.170;20.884;2022-10-16T07:46:44;19.00;;;13.50;;
21274;SDS011;36472;52.170;20.884;2022-10-16T07:49:14;17.40;;;13.25;;
21274;SDS011;36472;52.170;20.884;2022-10-16T07:51:43;18.33;;;12.30;;
21274;SDS011;36472;52.170;20.884;2022-10-16T07:54:12;14.73;;;11.95;;
21274;SDS011;36472;52.170;20.884;2022-10-16T07:56:40;16.80;;;12.98;;
21274;SDS011;36472;52.170;20.884;2022-10-16T07:59:10;18.45;;;13.25;;
21274;SDS011;36472;52.170;20.884;2022-10-16T08:01:38;18.40;;;12.60;;
21274;SDS011;36472;52.170;20.884;2022-10-16T08:04:08;14.63;;;11.77;;
21274;SDS011;36472;52.170;20.884;2022-10-16T08:06:39;16.98;;;12.82;;
21274;SDS011;36472;52.170;20.884;2022-10-16T08:09:09;15.18;;;12.68;;
21274;SDS011;36472;52.170;20.884;2022-10-16T08:11:38;17.83;;;12.90;;
21274;SDS011;36472;52.170;20.884;2022-10-16T08:14:06;15.05;;;11.95;;
21274;SDS011;36472;52.170;20.884;2022-10-16T08:16:35;13.60;;;11.98;;
21274;SDS011;36472;52.170;20.884;2022-10-16T08:19:04;14.70;;;12.52;;
21274;SDS011;36472;52.170;20.884;2022-10-16T08:21:32;18.50;;;11.73;;
21274;SDS011;36472;52.170;20.884;2022-10-16T08:24:02;14.63;;;11.45;;
21274;SDS011;36472;52.170;20.884;2022-10-16T08:26:31;13.15;;;11.18;;
21274;SDS011;36472;52.170;20.884;2022-10-16T08:29:00;13.60;;;10.70;;
21274;SDS011;36472;52.170;20.884;2022-10-16T08:31:29;17.40;;;11.88;;
21274;SDS011;36472;52.170;20.884;2022-10-16T08:33:57;13.32;;;11.02;;
21274;SDS011;36472;52.170;20.884;2022-10-16T08:36:26;13.98;;;10.20;;
21274;SDS011;36472;52.170;20.884;2022-10-16T08:38:55;12.45;;;10.88;;
21274;SDS011;36472;52.170;20.884;2022-10-16T08:41:32;14.02;;;10.88;;
21274;SDS011;36472;52.170;20.884;2022-10-16T08:45:02;13.52;;;11.00;;
21274;SDS011;36472;52.170;20.884;2022-10-16T08:47:49;14.45;;;11.00;;
21274;SDS011;36472;52.170;20.884;2022-10-16T08:50:31;14.43;;;10.85;;
21274;SDS011;36472;52.170;20.884;2022-10-16T08:53:06;13.23;;;11.23;;
21274;SDS011;36472;52.170;20.884;2022-10-16T08:55:43;13.18;;;11.00;;
21274;SDS011;36472;52.170;20.884;2022-10-16T08:58:19;15.10;;;12.27;;
21274;SDS011;36472;52.170;20.884;2022-10-16T09:00:51;13.93;;;11.63;;
21274;SDS011;36472;52.170;20.884;2022-10-16T09:03:27;14.30;;;11.00;;
21274;SDS011;36472;52.170;20.884;2022-10-16T09:06:17;13.95;;;11.65;;
21274;SDS011;36472;52.170;20.884;2022-10-16T09:09:07;14.05;;;10.77;;
21274;SDS011;36472;52.170;20.884;2022-10-16T09:11:55;14.30;;;10.73;;
21274;SDS011;36472;52.170;20.884;2022-10-16T09:14:37;12.45;;;9.73;;
21274;SDS011;36472;52.170;20.884;2022-10-16T09:17:24;13.70;;;10.07;;
21274;SDS011;36472;52.170;20.884;2022-10-16T09:20:13;12.18;;;9.95;;
21274;SDS011;36472;52.170;20.884;2022-10-16T09:22:59;12.55;;;9.50;;
21274;SDS011;36472;52.170;20.884;2022-10-16T09:25:43;14.05;;;9.77;;
21274;SDS011;36472;52.170;20.884;2022-10-16T09:28:15;16.40;;;9.52;;
21274;SDS011;36472;52.170;20.884;2022-10-16T09:30:47;11.40;;;9.93;;
21274;SDS011;36472;52.170;20.884;2022-10-16T09:33:18;12.30;;;9.57;;
21274;SDS011;36472;52.170;20.884;2022-10-16T09:35:51;12.35;;;9.90;;
21274;SDS011;36472;52.170;20.884;2022-10-16T09:38:25;11.23;;;9.60;;
21274;SDS011;36472;52.170;20.884;2022-10-16T09:40:57;12.07;;;10.70;;
21274;SDS011;36472;52.170;20.884;2022-10-16T09:43:32;13.18;;;10.23;;
21274;SDS011;36472;52.170;20.884;2022-10-16T09:46:08;12.55;;;9.82;;
21274;SDS011;36472;52.170;20.884;2022-10-16T09:48:53;13.35;;;10.10;;
21274;SDS011;36472;52.170;20.884;2022-10-16T09:51:26;11.65;;;9.75;;
21274;SDS011;36472;52.170;20.884;2022-10-16T09:53:58;14.45;;;11.05;;
21274;SDS011;36472;52.170;20.884;2022-10-16T09:56:29;11.63;;;10.07;;
21274;SDS011;36472;52.170;20.884;2022-10-16T09:59:00;12.15;;;10.18;;
21274;SDS011;36472;52.170;20.884;2022-10-16T10:01:40;14.45;;;10.15;;
21274;SDS011;36472;52.170;20.884;2022-10-16T10:04:14;14.02;;;10.30;;
21274;SDS011;36472;52.170;20.884;2022-10-16T10:06:43;11.77;;;10.45;;
21274;SDS011;36472;52.170;20.884;2022-10-16T10:09:16;11.68;;;9.80;;
21274;SDS011;36472;52.170;20.884;2022-10-16T10:11:49;10.63;;;9.50;;
21274;SDS011;36472;52.170;20.884;2022-10-16T10:14:25;12.18;;;9.90;;
21274;SDS011;36472;52.170;20.884;2022-10-16T10:17:11;13.25;;;9.70;;
21274;SDS011;36472;52.170;20.884;2022-10-16T10:19:47;17.10;;;10.65;;
21274;SDS011;36472;52.170;20.884;2022-10-16T10:22:27;13.50;;;9.75;;
21274;SDS011;36472;52.170;20.884;2022-10-16T10:25:00;15.10;;;10.45;;
21274;SDS011;36472;52.170;20.884;2022-10-16T10:27:57;12.70;;;9.73;;
21274;SDS011;36472;52.170;20.884;2022-10-16T10:30:43;13.77;;;9.90;;
21274;SDS011;36472;52.170;20.884;2022-10-16T10:33:27;13.20;;;9.02;;
21274;SDS011;36472;52.170;20.884;2022-10-16T10:36:09;10.75;;;9.65;;
21274;SDS011;36472;52.170;20.884;2022-10-16T10:38:58;12.45;;;9.95;;
21274;SDS011;36472;52.170;20.884;2022-10-16T10:41:50;13.88;;;9.80;;
21274;SDS011;36472;52.170;20.884;2022-10-16T10:44:54;11.27;;;10.07;;
21274;SDS011;36472;52.170;20.884;2022-10-16T10:47:41;11.25;;;9.82;;
21274;SDS011;36472;52.170;20.884;2022-10-16T10:50:24;14.38;;;10.00;;
21274;SDS011;36472;52.170;20.884;2022-10-16T10:53:05;12.43;;;9.90;;
21274;SDS011;36472;52.170;20.884;2022-10-16T10:55:50;12.02;;;9.82;;
21274;SDS011;36472;52.170;20.884;2022-10-16T10:58:35;13.90;;;9.90;;
21274;SDS011;36472;52.170;20.884;2022-10-16T11:01:24;11.63;;;9.98;;
21274;SDS011;36472;52.170;20.884;2022-10-16T11:04:15;12.35;;;9.52;;
21274;SDS011;36472;52.170;20.884;2022-10-16T11:07:21;11.80;;;10.13;;
21274;SDS011;36472;52.170;20.884;2022-10-16T11:09:57;10.95;;;9.63;;
21274;SDS011;36472;52.170;20.884;2022-10-16T11:12:33;11.43;;;9.70;;
21274;SDS011;36472;52.170;20.884;2022-10-16T11:15:11;15.10;;;10.38;;
21274;SDS011;36472;52.170;20.884;2022-10-16T11:17:48;12.27;;;9.70;;
21274;SDS011;36472;52.170;20.884;2022-10-16T11:20:25;11.90;;;9.07;;
21274;SDS011;36472;52.170;20.884;2022-10-16T11:23:00;11.45;;;10.00;;
21274;SDS011;36472;52.170;20.884;2022-10-16T11:25:38;10.35;;;8.73;;
21274;SDS011;36472;52.170;20.884;2022-10-16T11:28:09;12.35;;;8.75;;
21274;SDS011;36472;52.170;20.884;2022-10-16T11:30:44;11.15;;;9.52;;
21274;SDS011;36472;52.170;20.884;2022-10-16T11:33:25;10.95;;;8.70;;
21274;SDS011;36472;52.170;20.884;2022-10-16T11:36:04;9.75;;;8.75;;
21274;SDS011;36472;52.170;20.884;2022-10-16T11:38:45;11.43;;;9.18;;
21274;SDS011;36472;52.170;20.884;2022-10-16T11:41:24;12.00;;;9.40;;
21274;SDS011;36472;52.170;20.884;2022-10-16T11:44:06;11.60;;;9.27;;
21274;SDS011;36472;52.170;20.884;2022-10-16T11:46:50;11.57;;;9.43;;
21274;SDS011;36472;52.170;20.884;2022-10-16T11:49:49;10.77;;;8.35;;
21274;SDS011;36472;52.170;20.884;2022-10-16T11:52:25;10.13;;;8.70;;
21274;SDS011;36472;52.170;20.884;2022-10-16T11:55:09;12.05;;;9.57;;
21274;SDS011;36472;52.170;20.884;2022-10-16T11:57:45;10.98;;;8.93;;
21274;SDS011;36472;52.170;20.884;2022-10-16T12:00:20;10.85;;;8.90;;
21274;SDS011;36472;52.170;20.884;2022-10-16T12:02:54;11.70;;;9.32;;
21274;SDS011;36472;52.170;20.884;2022-10-16T12:05:33;11.93;;;9.15;;
21274;SDS011;36472;52.170;20.884;2022-10-16T12:08:26;9.13;;;8.23;;
21274;SDS011;36472;52.170;20.884;2022-10-16T12:11:07;10.45;;;8.90;;
21274;SDS011;36472;52.170;20.884;2022-10-16T12:13:38;9.60;;;8.63;;
21274;SDS011;36472;52.170;20.884;2022-10-16T12:16:20;9.60;;;8.60;;
21274;SDS011;36472;52.170;20.884;2022-10-16T12:19:03;11.55;;;8.65;;
21274;SDS011;36472;52.170;20.884;2022-10-16T12:21:43;10.35;;;7.82;;
21274;SDS011;36472;52.170;20.884;2022-10-16T12:24:20;9.65;;;8.40;;
21274;SDS011;36472;52.170;20.884;2022-10-16T12:26:59;12.43;;;9.13;;
21274;SDS011;36472;52.170;20.884;2022-10-16T12:29:32;11.75;;;9.35;;
21274;SDS011;36472;52.170;20.884;2022-10-16T12:32:05;9.95;;;8.85;;
21274;SDS011;36472;52.170;20.884;2022-10-16T12:35:18;10.75;;;9.23;;
21274;SDS011;36472;52.170;20.884;2022-10-16T12:37:51;12.82;;;9.75;;
21274;SDS011;36472;52.170;20.884;2022-10-16T12:40:25;11.27;;;8.55;;
21274;SDS011;36472;52.170;20.884;2022-10-16T12:43:10;13.05;;;9.73;;
21274;SDS011;36472;52.170;20.884;2022-10-16T12:45:59;11.15;;;8.23;;
21274;SDS011;36472;52.170;20.884;2022-10-16T12:48:31;11.32;;;9.02;;
21274;SDS011;36472;52.170;20.884;2022-10-16T12:51:21;10.40;;;8.52;;
21274;SDS011;36472;52.170;20.884;2022-10-16T12:54:00;9.40;;;7.97;;
21274;SDS011;36472;52.170;20.884;2022-10-16T12:56:33;8.68;;;7.32;;
21274;SDS011;36472;52.170;20.884;2022-10-16T12:59:21;9.07;;;8.07;;
21274;SDS011;36472;52.170;20.884;2022-10-16T13:02:08;9.20;;;8.30;;
21274;SDS011;36472;52.170;20.884;2022-10-16T13:05:12;10.63;;;8.90;;
21274;SDS011;36472;52.170;20.884;2022-10-16T13:08:13;14.10;;;9.10;;
21274;SDS011;36472;52.170;20.884;2022-10-16T13:11:03;12.52;;;8.85;;
21274;SDS011;36472;52.170;20.884;2022-10-16T13:13:57;11.95;;;8.30;;
21274;SDS011;36472;52.170;20.884;2022-10-16T13:16:52;11.75;;;9.77;;
21274;SDS011;36472;52.170;20.884;2022-10-16T13:19:35;9.55;;;7.85;;
21274;SDS011;36472;52.170;20.884;2022-10-16T13:22:17;8.60;;;7.65;;
21274;SDS011;36472;52.170;20.884;2022-10-16T13:25:01;9.00;;;7.97;;
21274;SDS011;36472;52.170;20.884;2022-10-16T13:27:46;9.73;;;8.32;;
21274;SDS011;36472;52.170;20.884;2022-10-16T13:30:23;10.63;;;7.88;;
21274;SDS011;36472;52.170;20.884;2022-10-16T13:32:59;8.45;;;7.55;;
21274;SDS011;36472;52.170;20.884;2022-10-16T13:35:32;8.48;;;7.47;;
21274;SDS011;36472;52.170;20.884;2022-10-16T13:38:04;7.85;;;7.05;;
21274;SDS011;36472;52.170;20.884;2022-10-16T13:40:53;10.60;;;8.10;;
21274;SDS011;36472;52.170;20.884;2022-10-16T13:43:26;9.50;;;7.47;;
21274;SDS011;36472;52.170;20.884;2022-10-16T13:46:00;11.98;;;9.48;;
21274;SDS011;36472;52.170;20.884;2022-10-16T13:48:33;11.25;;;9.32;;
21274;SDS011;36472;52.170;20.884;2022-10-16T13:51:04;12.32;;;10.02;;
21274;SDS011;36472;52.170;20.884;2022-10-16T13:53:40;9.50;;;8.50;;
21274;SDS011;36472;52.170;20.884;2022-10-16T13:56:10;9.90;;;8.43;;
21274;SDS011;36472;52.170;20.884;2022-10-16T13:58:41;10.98;;;8.63;;
21274;SDS011;36472;52.170;20.884;2022-10-16T14:01:15;9.65;;;7.85;;
21274;SDS011;36472;52.170;20.884;2022-10-16T14:03:49;13.38;;;8.65;;
21274;SDS011;36472;52.170;20.884;2022-10-16T14:06:20;9.95;;;8.80;;
21274;SDS011;36472;52.170;20.884;2022-10-16T14:08:50;13.20;;;8.15;;
21274;SDS011;36472;52.170;20.884;2022-10-16T14:11:26;10.32;;;8.93;;
21274;SDS011;36472;52.170;20.884;2022-10-16T14:13:56;12.15;;;9.45;;
21274;SDS011;36472;52.170;20.884;2022-10-16T14:16:26;11.25;;;9.02;;
21274;SDS011;36472;52.170;20.884;2022-10-16T14:19:01;11.02;;;9.18;;
21274;SDS011;36472;52.170;20.884;2022-10-16T14:21:33;10.77;;;9.32;;
21274;SDS011;36472;52.170;20.884;2022-10-16T14:24:10;11.45;;;9.50;;
21274;SDS011;36472;52.170;20.884;2022-10-16T14:26:43;12.00;;;9.45;;
21274;SDS011;36472;52.170;20.884;2022-10-16T14:29:18;11.77;;;9.23;;
21274;SDS011;36472;52.170;20.884;2022-10-16T14:31:54;13.00;;;9.63;;
21274;SDS011;36472;52.170;20.884;2022-10-16T14:34:28;12.40;;;9.63;;
21274;SDS011;36472;52.170;20.884;2022-10-16T14:37:00;10.85;;;9.52;;
21274;SDS011;36472;52.170;20.884;2022-10-16T14:39:36;12.13;;;10.10;;
21274;SDS011;36472;52.170;20.884;2022-10-16T14:42:05;13.48;;;10.45;;
21274;SDS011;36472;52.170;20.884;2022-10-16T14:44:46;12.52;;;9.63;;
21274;SDS011;36472;52.170;20.884;2022-10-16T14:47:17;10.23;;;8.82;;
21274;SDS011;36472;52.170;20.884;2022-10-16T14:49:54;13.35;;;9.82;;
21274;SDS011;36472;52.170;20.884;2022-10-16T14:52:25;10.60;;;9.50;;
21274;SDS011;36472;52.170;20.884;2022-10-16T14:54:54;12.32;;;10.82;;